sensor_id;sensor_type;location;lat;lon;timestamp;P1;durP1;ratioP1;P2;durP2;ratioP2
53010;SDS011;42803;55.762;38.084;2023-09-19T00:00:48;19.67;;;11.60;;
53010;SDS011;42803;55.762;38.084;2023-09-19T00:03:18;19.55;;;11.48;;
53010;SDS011;42803;55.762;38.084;2023-09-19T00:05:48;17.75;;;10.85;;
53010;SDS011;42803;55.762;38.084;2023-09-19T00:08:17;21.17;;;10.57;;
53010;SDS011;42803;55.762;38.084;2023-09-19T00:10:52;19.60;;;10.90;;
53010;SDS011;42803;55.762;38.084;2023-09-19T00:13:22;20.48;;;10.45;;
53010;SDS011;42803;55.762;38.084;2023-09-19T00:15:52;21.13;;;10.57;;
53010;SDS011;42803;55.762;38.084;2023-09-19T00:18:23;21.38;;;10.50;;
53010;SDS011;42803;55.762;38.084;2023-09-19T00:20:56;16.40;;;10.13;;
53010;SDS011;42803;55.762;38.084;2023-09-19T00:23:26;16.00;;;9.43;;
53010;SDS011;42803;55.762;38.084;2023-09-19T00:25:59;18.58;;;10.05;;
53010;SDS011;42803;55.762;38.084;2023-09-19T00:28:28;19.00;;;9.65;;
53010;SDS011;42803;55.762;38.084;2023-09-19T00:30:59;18.70;;;9.75;;
53010;SDS011;42803;55.762;38.084;2023-09-19T00:33:31;16.88;;;9.68;;
53010;SDS011;42803;55.762;38.084;2023-09-19T00:36:01;17.88;;;9.70;;
53010;SDS011;42803;55.762;38.084;2023-09-19T00:38:33;16.80;;;9.30;;
53010;SDS011;42803;55.762;38.084;2023-09-19T00:41:03;16.45;;;9.63;;
53010;SDS011;42803;55.762;38.084;2023-09-19T00:43:33;16.00;;;10.07;;
53010;SDS011;42803;55.762;38.084;2023-09-19T00:46:03;16.23;;;8.98;;
53010;SDS011;42803;55.762;38.084;2023-09-19T00:48:36;17.65;;;9.70;;
53010;SDS011;42803;55.762;38.084;2023-09-19T00:51:12;15.30;;;8.38;;
53010;SDS011;42803;55.762;38.084;2023-09-19T00:53:46;16.02;;;9.50;;
53010;SDS011;42803;55.762;38.084;2023-09-19T00:56:17;19.98;;;10.38;;
53010;SDS011;42803;55.762;38.084;2023-09-19T00:58:47;17.08;;;9.05;;
53010;SDS011;42803;55.762;38.084;2023-09-19T01:01:17;14.75;;;9.15;;
53010;SDS011;42803;55.762;38.084;2023-09-19T01:03:47;14.32;;;9.18;;
53010;SDS011;42803;55.762;38.084;2023-09-19T01:06:17;15.50;;;8.98;;
53010;SDS011;42803;55.762;38.084;2023-09-19T01:08:47;14.82;;;9.02;;
53010;SDS011;42803;55.762;38.084;2023-09-19T01:11:20;16.15;;;9.57;;
53010;SDS011;42803;55.762;38.084;2023-09-19T01:13:58;12.95;;;8.27;;
53010;SDS011;42803;55.762;38.084;2023-09-19T01:16:37;14.98;;;8.10;;
53010;SDS011;42803;55.762;38.084;2023-09-19T01:19:20;14.13;;;8.20;;
53010;SDS011;42803;55.762;38.084;2023-09-19T01:22:05;16.85;;;9.38;;
53010;SDS011;42803;55.762;38.084;2023-09-19T01:28:06;13.55;;;7.78;;
53010;SDS011;42803;55.762;38.084;2023-09-19T01:30:45;12.48;;;7.47;;
53010;SDS011;42803;55.762;38.084;2023-09-19T01:33:17;13.32;;;7.82;;
53010;SDS011;42803;55.762;38.084;2023-09-19T01:35:46;11.60;;;7.28;;
53010;SDS011;42803;55.762;38.084;2023-09-19T01:38:16;12.23;;;7.55;;
53010;SDS011;42803;55.762;38.084;2023-09-19T01:40:48;12.57;;;7.28;;
53010;SDS011;42803;55.762;38.084;2023-09-19T01:43:27;11.45;;;7.22;;
53010;SDS011;42803;55.762;38.084;2023-09-19T01:46:04;12.70;;;6.70;;
53010;SDS011;42803;55.762;38.084;2023-09-19T01:48:38;12.40;;;6.13;;
53010;SDS011;42803;55.762;38.084;2023-09-19T01:51:16;13.00;;;8.05;;
53010;SDS011;42803;55.762;38.084;2023-09-19T01:53:59;11.30;;;6.93;;
53010;SDS011;42803;55.762;38.084;2023-09-19T01:59:04;13.82;;;7.22;;
53010;SDS011;42803;55.762;38.084;2023-09-19T02:01:39;11.63;;;6.97;;
53010;SDS011;42803;55.762;38.084;2023-09-19T02:04:12;10.90;;;6.05;;
53010;SDS011;42803;55.762;38.084;2023-09-19T02:06:41;11.85;;;6.50;;
53010;SDS011;42803;55.762;38.084;2023-09-19T02:09:10;9.82;;;6.07;;
53010;SDS011;42803;55.762;38.084;2023-09-19T02:11:40;10.20;;;5.55;;
53010;SDS011;42803;55.762;38.084;2023-09-19T02:14:09;10.88;;;6.72;;
53010;SDS011;42803;55.762;38.084;2023-09-19T02:16:40;8.93;;;5.30;;
53010;SDS011;42803;55.762;38.084;2023-09-19T02:19:10;8.35;;;5.30;;
53010;SDS011;42803;55.762;38.084;2023-09-19T02:21:39;10.57;;;5.13;;
53010;SDS011;42803;55.762;38.084;2023-09-19T02:24:09;8.52;;;5.72;;
53010;SDS011;42803;55.762;38.084;2023-09-19T02:26:40;8.32;;;5.35;;
53010;SDS011;42803;55.762;38.084;2023-09-19T02:29:09;10.00;;;4.78;;
53010;SDS011;42803;55.762;38.084;2023-09-19T02:31:41;9.40;;;5.03;;
53010;SDS011;42803;55.762;38.084;2023-09-19T02:34:10;8.35;;;5.55;;
53010;SDS011;42803;55.762;38.084;2023-09-19T02:36:40;10.13;;;5.53;;
53010;SDS011;42803;55.762;38.084;2023-09-19T02:39:11;6.70;;;4.35;;
53010;SDS011;42803;55.762;38.084;2023-09-19T02:41:40;5.68;;;3.83;;
53010;SDS011;42803;55.762;38.084;2023-09-19T02:44:10;8.75;;;5.93;;
53010;SDS011;42803;55.762;38.084;2023-09-19T02:46:39;6.75;;;4.43;;
53010;SDS011;42803;55.762;38.084;2023-09-19T02:49:11;8.63;;;4.90;;
53010;SDS011;42803;55.762;38.084;2023-09-19T02:51:40;7.50;;;4.57;;
53010;SDS011;42803;55.762;38.084;2023-09-19T02:54:10;5.90;;;4.10;;
53010;SDS011;42803;55.762;38.084;2023-09-19T02:56:39;7.18;;;4.63;;
53010;SDS011;42803;55.762;38.084;2023-09-19T02:59:08;8.07;;;4.50;;
53010;SDS011;42803;55.762;38.084;2023-09-19T03:01:38;9.55;;;5.13;;
53010;SDS011;42803;55.762;38.084;2023-09-19T03:04:07;5.10;;;4.18;;
53010;SDS011;42803;55.762;38.084;2023-09-19T03:06:40;8.77;;;5.03;;
53010;SDS011;42803;55.762;38.084;2023-09-19T03:09:09;8.07;;;4.38;;
53010;SDS011;42803;55.762;38.084;2023-09-19T03:11:39;9.38;;;4.90;;
53010;SDS011;42803;55.762;38.084;2023-09-19T03:14:09;13.45;;;4.78;;
53010;SDS011;42803;55.762;38.084;2023-09-19T03:16:39;5.85;;;4.03;;
53010;SDS011;42803;55.762;38.084;2023-09-19T03:19:10;6.95;;;4.22;;
53010;SDS011;42803;55.762;38.084;2023-09-19T03:21:41;6.18;;;4.63;;
53010;SDS011;42803;55.762;38.084;2023-09-19T03:24:10;6.53;;;4.50;;
53010;SDS011;42803;55.762;38.084;2023-09-19T03:26:39;10.77;;;4.80;;
53010;SDS011;42803;55.762;38.084;2023-09-19T03:29:08;7.65;;;3.63;;
53010;SDS011;42803;55.762;38.084;2023-09-19T03:31:38;5.78;;;4.10;;
53010;SDS011;42803;55.762;38.084;2023-09-19T03:34:08;8.02;;;4.13;;
53010;SDS011;42803;55.762;38.084;2023-09-19T03:36:37;6.55;;;4.30;;
53010;SDS011;42803;55.762;38.084;2023-09-19T03:39:08;10.15;;;4.65;;
53010;SDS011;42803;55.762;38.084;2023-09-19T03:41:38;7.80;;;4.68;;
53010;SDS011;42803;55.762;38.084;2023-09-19T03:44:07;9.07;;;4.00;;
53010;SDS011;42803;55.762;38.084;2023-09-19T03:46:36;7.50;;;4.63;;
53010;SDS011;42803;55.762;38.084;2023-09-19T03:49:06;8.32;;;4.30;;
53010;SDS011;42803;55.762;38.084;2023-09-19T03:51:36;6.60;;;4.15;;
53010;SDS011;42803;55.762;38.084;2023-09-19T03:54:05;9.57;;;4.65;;
53010;SDS011;42803;55.762;38.084;2023-09-19T03:56:36;6.10;;;4.15;;
53010;SDS011;42803;55.762;38.084;2023-09-19T03:59:05;5.55;;;3.72;;
53010;SDS011;42803;55.762;38.084;2023-09-19T04:01:35;6.13;;;4.30;;
53010;SDS011;42803;55.762;38.084;2023-09-19T04:04:05;7.13;;;4.57;;
53010;SDS011;42803;55.762;38.084;2023-09-19T04:06:36;6.05;;;3.67;;
53010;SDS011;42803;55.762;38.084;2023-09-19T04:09:06;6.72;;;4.28;;
53010;SDS011;42803;55.762;38.084;2023-09-19T04:11:39;9.50;;;4.15;;
53010;SDS011;42803;55.762;38.084;2023-09-19T04:14:08;9.80;;;4.80;;
53010;SDS011;42803;55.762;38.084;2023-09-19T04:16:38;7.78;;;4.70;;
53010;SDS011;42803;55.762;38.084;2023-09-19T04:19:07;6.70;;;4.25;;
53010;SDS011;42803;55.762;38.084;2023-09-19T04:21:37;6.43;;;4.40;;
53010;SDS011;42803;55.762;38.084;2023-09-19T04:24:06;5.97;;;3.97;;
53010;SDS011;42803;55.762;38.084;2023-09-19T04:26:35;6.03;;;4.38;;
53010;SDS011;42803;55.762;38.084;2023-09-19T04:29:06;9.98;;;3.88;;
53010;SDS011;42803;55.762;38.084;2023-09-19T04:31:38;6.72;;;4.60;;
53010;SDS011;42803;55.762;38.084;2023-09-19T04:34:11;8.05;;;4.82;;
53010;SDS011;42803;55.762;38.084;2023-09-19T04:36:42;8.63;;;4.30;;
53010;SDS011;42803;55.762;38.084;2023-09-19T04:39:11;6.97;;;4.10;;
53010;SDS011;42803;55.762;38.084;2023-09-19T04:41:40;8.20;;;4.88;;
53010;SDS011;42803;55.762;38.084;2023-09-19T04:44:11;5.90;;;3.78;;
53010;SDS011;42803;55.762;38.084;2023-09-19T04:46:41;7.10;;;4.65;;
53010;SDS011;42803;55.762;38.084;2023-09-19T04:49:10;6.93;;;4.82;;
53010;SDS011;42803;55.762;38.084;2023-09-19T04:51:39;9.73;;;4.88;;
53010;SDS011;42803;55.762;38.084;2023-09-19T04:54:09;8.27;;;4.82;;
53010;SDS011;42803;55.762;38.084;2023-09-19T04:56:39;5.75;;;4.20;;
53010;SDS011;42803;55.762;38.084;2023-09-19T04:59:08;9.48;;;4.10;;
53010;SDS011;42803;55.762;38.084;2023-09-19T05:01:39;8.07;;;4.75;;
53010;SDS011;42803;55.762;38.084;2023-09-19T05:04:09;6.47;;;4.90;;
53010;SDS011;42803;55.762;38.084;2023-09-19T05:06:38;7.85;;;4.85;;
53010;SDS011;42803;55.762;38.084;2023-09-19T05:09:12;8.50;;;4.93;;
53010;SDS011;42803;55.762;38.084;2023-09-19T05:11:43;7.15;;;4.90;;
53010;SDS011;42803;55.762;38.084;2023-09-19T05:14:12;7.97;;;4.70;;
53010;SDS011;42803;55.762;38.084;2023-09-19T05:16:42;8.60;;;4.82;;
53010;SDS011;42803;55.762;38.084;2023-09-19T05:19:12;6.85;;;4.63;;
53010;SDS011;42803;55.762;38.084;2023-09-19T05:21:41;8.48;;;4.93;;
53010;SDS011;42803;55.762;38.084;2023-09-19T05:24:10;7.85;;;5.20;;
53010;SDS011;42803;55.762;38.084;2023-09-19T05:26:41;7.47;;;5.00;;
53010;SDS011;42803;55.762;38.084;2023-09-19T05:29:11;9.07;;;5.13;;
53010;SDS011;42803;55.762;38.084;2023-09-19T05:31:40;10.40;;;5.80;;
53010;SDS011;42803;55.762;38.084;2023-09-19T05:34:11;8.00;;;5.38;;
53010;SDS011;42803;55.762;38.084;2023-09-19T05:36:41;8.40;;;5.15;;
53010;SDS011;42803;55.762;38.084;2023-09-19T05:39:10;11.85;;;5.63;;
53010;SDS011;42803;55.762;38.084;2023-09-19T05:41:39;8.52;;;4.75;;
53010;SDS011;42803;55.762;38.084;2023-09-19T05:44:09;9.15;;;5.20;;
53010;SDS011;42803;55.762;38.084;2023-09-19T05:46:38;13.25;;;5.95;;
53010;SDS011;42803;55.762;38.084;2023-09-19T05:49:09;8.35;;;5.18;;
53010;SDS011;42803;55.762;38.084;2023-09-19T05:51:38;8.48;;;4.65;;
53010;SDS011;42803;55.762;38.084;2023-09-19T05:54:07;7.65;;;5.70;;
53010;SDS011;42803;55.762;38.084;2023-09-19T05:56:39;6.82;;;5.35;;
53010;SDS011;42803;55.762;38.084;2023-09-19T05:59:09;10.73;;;5.55;;
53010;SDS011;42803;55.762;38.084;2023-09-19T06:01:38;9.10;;;6.10;;
53010;SDS011;42803;55.762;38.084;2023-09-19T06:04:09;12.38;;;6.07;;
53010;SDS011;42803;55.762;38.084;2023-09-19T06:06:38;11.13;;;6.28;;
53010;SDS011;42803;55.762;38.084;2023-09-19T06:09:08;10.57;;;6.05;;
53010;SDS011;42803;55.762;38.084;2023-09-19T06:11:37;9.52;;;5.60;;
53010;SDS011;42803;55.762;38.084;2023-09-19T06:14:06;7.35;;;5.70;;
53010;SDS011;42803;55.762;38.084;2023-09-19T06:16:37;14.10;;;7.05;;
53010;SDS011;42803;55.762;38.084;2023-09-19T06:19:10;8.18;;;6.10;;
53010;SDS011;42803;55.762;38.084;2023-09-19T06:21:39;9.85;;;5.70;;
53010;SDS011;42803;55.762;38.084;2023-09-19T06:24:09;9.25;;;6.13;;
53010;SDS011;42803;55.762;38.084;2023-09-19T06:26:38;8.43;;;6.00;;
53010;SDS011;42803;55.762;38.084;2023-09-19T06:29:08;10.98;;;5.93;;
53010;SDS011;42803;55.762;38.084;2023-09-19T06:31:38;9.27;;;5.85;;
53010;SDS011;42803;55.762;38.084;2023-09-19T06:34:10;9.50;;;5.82;;
53010;SDS011;42803;55.762;38.084;2023-09-19T06:36:42;13.82;;;6.35;;
53010;SDS011;42803;55.762;38.084;2023-09-19T06:39:12;9.68;;;5.75;;
53010;SDS011;42803;55.762;38.084;2023-09-19T06:41:41;10.32;;;6.40;;
53010;SDS011;42803;55.762;38.084;2023-09-19T06:44:13;11.27;;;6.65;;
53010;SDS011;42803;55.762;38.084;2023-09-19T06:46:42;9.20;;;5.85;;
53010;SDS011;42803;55.762;38.084;2023-09-19T06:49:15;10.50;;;5.55;;
53010;SDS011;42803;55.762;38.084;2023-09-19T06:51:45;9.65;;;5.97;;
53010;SDS011;42803;55.762;38.084;2023-09-19T06:54:17;10.85;;;5.90;;
53010;SDS011;42803;55.762;38.084;2023-09-19T06:56:46;9.82;;;6.22;;
53010;SDS011;42803;55.762;38.084;2023-09-19T06:59:16;9.43;;;5.90;;
53010;SDS011;42803;55.762;38.084;2023-09-19T07:01:45;9.27;;;5.68;;
53010;SDS011;42803;55.762;38.084;2023-09-19T07:04:21;10.25;;;5.88;;
53010;SDS011;42803;55.762;38.084;2023-09-19T07:06:51;7.35;;;5.15;;
53010;SDS011;42803;55.762;38.084;2023-09-19T07:09:20;7.53;;;5.28;;
53010;SDS011;42803;55.762;38.084;2023-09-19T07:11:50;9.20;;;5.15;;
53010;SDS011;42803;55.762;38.084;2023-09-19T07:14:19;7.20;;;5.57;;
53010;SDS011;42803;55.762;38.084;2023-09-19T07:16:49;10.38;;;5.47;;
53010;SDS011;42803;55.762;38.084;2023-09-19T07:19:21;9.52;;;5.63;;
53010;SDS011;42803;55.762;38.084;2023-09-19T07:21:50;9.35;;;5.60;;
53010;SDS011;42803;55.762;38.084;2023-09-19T07:24:19;11.32;;;5.75;;
53010;SDS011;42803;55.762;38.084;2023-09-19T07:26:50;7.28;;;5.57;;
53010;SDS011;42803;55.762;38.084;2023-09-19T07:29:19;7.03;;;5.60;;
53010;SDS011;42803;55.762;38.084;2023-09-19T07:31:49;11.77;;;6.20;;
53010;SDS011;42803;55.762;38.084;2023-09-19T07:34:19;10.07;;;6.07;;
53010;SDS011;42803;55.762;38.084;2023-09-19T07:36:51;8.23;;;5.85;;
53010;SDS011;42803;55.762;38.084;2023-09-19T07:39:20;8.10;;;6.07;;
53010;SDS011;42803;55.762;38.084;2023-09-19T07:41:50;9.55;;;6.30;;
53010;SDS011;42803;55.762;38.084;2023-09-19T07:44:21;9.60;;;6.30;;
53010;SDS011;42803;55.762;38.084;2023-09-19T07:46:54;8.52;;;6.13;;
53010;SDS011;42803;55.762;38.084;2023-09-19T07:49:25;12.10;;;6.07;;
53010;SDS011;42803;55.762;38.084;2023-09-19T07:51:55;12.27;;;6.50;;
53010;SDS011;42803;55.762;38.084;2023-09-19T07:54:26;8.32;;;6.05;;
53010;SDS011;42803;55.762;38.084;2023-09-19T07:56:58;8.30;;;5.68;;
53010;SDS011;42803;55.762;38.084;2023-09-19T07:59:27;9.93;;;6.28;;
53010;SDS011;42803;55.762;38.084;2023-09-19T08:01:57;9.35;;;6.32;;
53010;SDS011;42803;55.762;38.084;2023-09-19T08:04:28;12.98;;;6.28;;
53010;SDS011;42803;55.762;38.084;2023-09-19T08:07:01;9.63;;;6.50;;
53010;SDS011;42803;55.762;38.084;2023-09-19T08:09:32;9.88;;;7.03;;
53010;SDS011;42803;55.762;38.084;2023-09-19T08:12:03;10.93;;;7.57;;
53010;SDS011;42803;55.762;38.084;2023-09-19T08:14:32;11.30;;;6.60;;
53010;SDS011;42803;55.762;38.084;2023-09-19T08:17:02;12.10;;;7.43;;
53010;SDS011;42803;55.762;38.084;2023-09-19T08:19:35;9.50;;;6.22;;
53010;SDS011;42803;55.762;38.084;2023-09-19T08:22:09;11.30;;;6.63;;
53010;SDS011;42803;55.762;38.084;2023-09-19T08:24:39;10.65;;;6.63;;
53010;SDS011;42803;55.762;38.084;2023-09-19T08:27:11;11.45;;;6.15;;
53010;SDS011;42803;55.762;38.084;2023-09-19T08:29:41;10.60;;;6.57;;
53010;SDS011;42803;55.762;38.084;2023-09-19T08:32:11;10.65;;;6.63;;
53010;SDS011;42803;55.762;38.084;2023-09-19T08:34:56;12.00;;;5.60;;
53010;SDS011;42803;55.762;38.084;2023-09-19T08:37:27;8.85;;;5.95;;
53010;SDS011;42803;55.762;38.084;2023-09-19T08:39:57;9.95;;;6.68;;
53010;SDS011;42803;55.762;38.084;2023-09-19T08:42:31;14.45;;;7.13;;
53010;SDS011;42803;55.762;38.084;2023-09-19T08:45:19;9.73;;;6.32;;
53010;SDS011;42803;55.762;38.084;2023-09-19T08:47:56;11.43;;;5.85;;
53010;SDS011;42803;55.762;38.084;2023-09-19T08:50:36;14.50;;;6.47;;
53010;SDS011;42803;55.762;38.084;2023-09-19T08:53:12;9.00;;;5.40;;
53010;SDS011;42803;55.762;38.084;2023-09-19T08:55:50;13.55;;;6.05;;
53010;SDS011;42803;55.762;38.084;2023-09-19T08:58:31;9.43;;;5.80;;
53010;SDS011;42803;55.762;38.084;2023-09-19T09:01:08;8.68;;;5.75;;
53010;SDS011;42803;55.762;38.084;2023-09-19T09:03:44;10.75;;;6.25;;
53010;SDS011;42803;55.762;38.084;2023-09-19T09:06:17;11.27;;;6.20;;
53010;SDS011;42803;55.762;38.084;2023-09-19T09:08:50;9.02;;;6.07;;
53010;SDS011;42803;55.762;38.084;2023-09-19T09:11:20;13.15;;;6.43;;
53010;SDS011;42803;55.762;38.084;2023-09-19T09:13:52;10.23;;;5.90;;
53010;SDS011;42803;55.762;38.084;2023-09-19T09:16:27;14.48;;;6.47;;
53010;SDS011;42803;55.762;38.084;2023-09-19T09:19:00;8.65;;;6.10;;
53010;SDS011;42803;55.762;38.084;2023-09-19T09:21:32;14.02;;;6.57;;
53010;SDS011;42803;55.762;38.084;2023-09-19T09:26:57;11.02;;;5.90;;
53010;SDS011;42803;55.762;38.084;2023-09-19T09:32:27;10.55;;;5.78;;
53010;SDS011;42803;55.762;38.084;2023-09-19T09:35:12;9.35;;;6.25;;
53010;SDS011;42803;55.762;38.084;2023-09-19T09:38:00;11.77;;;6.18;;
53010;SDS011;42803;55.762;38.084;2023-09-19T09:40:45;9.27;;;6.05;;
53010;SDS011;42803;55.762;38.084;2023-09-19T09:43:30;11.27;;;6.25;;
53010;SDS011;42803;55.762;38.084;2023-09-19T09:46:07;11.18;;;6.78;;
53010;SDS011;42803;55.762;38.084;2023-09-19T09:49:08;13.88;;;6.95;;
53010;SDS011;42803;55.762;38.084;2023-09-19T09:51:59;12.50;;;6.50;;
53010;SDS011;42803;55.762;38.084;2023-09-19T09:54:41;12.77;;;6.35;;
53010;SDS011;42803;55.762;38.084;2023-09-19T09:57:32;11.10;;;6.75;;
53010;SDS011;42803;55.762;38.084;2023-09-19T10:00:16;9.15;;;6.03;;
53010;SDS011;42803;55.762;38.084;2023-09-19T10:03:01;11.65;;;6.32;;
53010;SDS011;42803;55.762;38.084;2023-09-19T10:05:39;14.70;;;7.15;;
53010;SDS011;42803;55.762;38.084;2023-09-19T10:08:26;8.50;;;5.53;;
53010;SDS011;42803;55.762;38.084;2023-09-19T10:11:01;10.27;;;6.70;;
53010;SDS011;42803;55.762;38.084;2023-09-19T10:13:55;12.38;;;6.03;;
53010;SDS011;42803;55.762;38.084;2023-09-19T10:16:31;11.82;;;5.90;;
53010;SDS011;42803;55.762;38.084;2023-09-19T10:19:15;10.90;;;6.03;;
53010;SDS011;42803;55.762;38.084;2023-09-19T10:21:54;9.88;;;5.97;;
53010;SDS011;42803;55.762;38.084;2023-09-19T10:24:28;10.52;;;6.10;;
53010;SDS011;42803;55.762;38.084;2023-09-19T10:27:09;10.70;;;6.15;;
53010;SDS011;42803;55.762;38.084;2023-09-19T10:29:52;10.93;;;6.60;;
53010;SDS011;42803;55.762;38.084;2023-09-19T10:35:00;10.02;;;5.75;;
53010;SDS011;42803;55.762;38.084;2023-09-19T10:37:38;12.13;;;6.65;;
53010;SDS011;42803;55.762;38.084;2023-09-19T10:40:17;12.32;;;6.90;;
53010;SDS011;42803;55.762;38.084;2023-09-19T10:43:02;11.88;;;6.38;;
53010;SDS011;42803;55.762;38.084;2023-09-19T10:45:49;12.13;;;6.88;;
53010;SDS011;42803;55.762;38.084;2023-09-19T10:48:31;12.07;;;6.80;;
53010;SDS011;42803;55.762;38.084;2023-09-19T10:51:11;14.13;;;7.05;;
53010;SDS011;42803;55.762;38.084;2023-09-19T10:53:50;13.05;;;6.55;;
53010;SDS011;42803;55.762;38.084;2023-09-19T10:56:30;17.08;;;6.68;;
53010;SDS011;42803;55.762;38.084;2023-09-19T10:59:09;14.85;;;6.75;;
53010;SDS011;42803;55.762;38.084;2023-09-19T11:01:47;10.57;;;6.25;;
53010;SDS011;42803;55.762;38.084;2023-09-19T11:04:31;12.07;;;6.28;;
53010;SDS011;42803;55.762;38.084;2023-09-19T11:07:12;12.80;;;7.30;;
53010;SDS011;42803;55.762;38.084;2023-09-19T11:09:48;13.38;;;7.05;;
53010;SDS011;42803;55.762;38.084;2023-09-19T11:24:52;16.17;;;6.70;;
53010;SDS011;42803;55.762;38.084;2023-09-19T11:30:50;16.35;;;7.95;;
53010;SDS011;42803;55.762;38.084;2023-09-19T11:33:23;12.00;;;7.78;;
53010;SDS011;42803;55.762;38.084;2023-09-19T11:36:17;14.30;;;7.55;;
53010;SDS011;42803;55.762;38.084;2023-09-19T11:39:07;11.02;;;7.28;;
53010;SDS011;42803;55.762;38.084;2023-09-19T11:42:01;12.82;;;7.20;;
53010;SDS011;42803;55.762;38.084;2023-09-19T11:48:42;10.57;;;6.35;;
53010;SDS011;42803;55.762;38.084;2023-09-19T11:51:23;14.77;;;7.25;;
53010;SDS011;42803;55.762;38.084;2023-09-19T11:54:27;10.73;;;7.07;;
53010;SDS011;42803;55.762;38.084;2023-09-19T11:57:12;15.35;;;7.07;;
53010;SDS011;42803;55.762;38.084;2023-09-19T11:59:56;12.70;;;7.82;;
53010;SDS011;42803;55.762;38.084;2023-09-19T12:02:44;13.07;;;8.20;;
53010;SDS011;42803;55.762;38.084;2023-09-19T12:05:28;12.13;;;7.15;;
53010;SDS011;42803;55.762;38.084;2023-09-19T12:08:17;17.67;;;7.82;;
53010;SDS011;42803;55.762;38.084;2023-09-19T12:10:53;17.40;;;7.88;;
53010;SDS011;42803;55.762;38.084;2023-09-19T12:13:31;14.02;;;8.13;;
53010;SDS011;42803;55.762;38.084;2023-09-19T12:19:27;12.43;;;7.80;;
53010;SDS011;42803;55.762;38.084;2023-09-19T12:22:03;11.55;;;7.22;;
53010;SDS011;42803;55.762;38.084;2023-09-19T12:25:03;13.50;;;7.72;;
53010;SDS011;42803;55.762;38.084;2023-09-19T12:28:16;15.65;;;7.60;;
53010;SDS011;42803;55.762;38.084;2023-09-19T12:30:47;15.10;;;6.72;;
53010;SDS011;42803;55.762;38.084;2023-09-19T12:33:26;13.95;;;7.60;;
53010;SDS011;42803;55.762;38.084;2023-09-19T12:36:00;12.32;;;7.80;;
53010;SDS011;42803;55.762;38.084;2023-09-19T12:39:10;17.35;;;8.13;;
53010;SDS011;42803;55.762;38.084;2023-09-19T12:41:46;15.10;;;7.78;;
53010;SDS011;42803;55.762;38.084;2023-09-19T12:44:30;14.45;;;7.25;;
53010;SDS011;42803;55.762;38.084;2023-09-19T12:47:14;9.82;;;6.50;;
53010;SDS011;42803;55.762;38.084;2023-09-19T12:52:51;15.05;;;6.95;;
53010;SDS011;42803;55.762;38.084;2023-09-19T12:55:26;12.90;;;6.88;;
53010;SDS011;42803;55.762;38.084;2023-09-19T12:58:14;12.43;;;7.45;;
53010;SDS011;42803;55.762;38.084;2023-09-19T13:00:48;12.95;;;7.47;;
53010;SDS011;42803;55.762;38.084;2023-09-19T13:03:28;13.70;;;6.55;;
53010;SDS011;42803;55.762;38.084;2023-09-19T13:06:01;12.20;;;6.47;;
53010;SDS011;42803;55.762;38.084;2023-09-19T13:08:46;14.00;;;8.00;;
53010;SDS011;42803;55.762;38.084;2023-09-19T13:11:22;12.82;;;7.13;;
53010;SDS011;42803;55.762;38.084;2023-09-19T13:17:02;14.88;;;7.97;;
53010;SDS011;42803;55.762;38.084;2023-09-19T13:19:46;12.60;;;6.97;;
53010;SDS011;42803;55.762;38.084;2023-09-19T13:22:39;13.48;;;6.93;;
53010;SDS011;42803;55.762;38.084;2023-09-19T13:25:24;11.73;;;7.10;;
53010;SDS011;42803;55.762;38.084;2023-09-19T13:28:09;12.80;;;6.80;;
53010;SDS011;42803;55.762;38.084;2023-09-19T13:30:42;9.02;;;6.43;;
53010;SDS011;42803;55.762;38.084;2023-09-19T13:33:16;11.57;;;6.30;;
53010;SDS011;42803;55.762;38.084;2023-09-19T13:35:51;11.43;;;6.30;;
53010;SDS011;42803;55.762;38.084;2023-09-19T13:38:29;8.43;;;6.10;;
53010;SDS011;42803;55.762;38.084;2023-09-19T13:41:04;9.73;;;6.13;;
53010;SDS011;42803;55.762;38.084;2023-09-19T13:43:40;10.35;;;5.95;;
53010;SDS011;42803;55.762;38.084;2023-09-19T13:46:21;8.75;;;5.78;;
53010;SDS011;42803;55.762;38.084;2023-09-19T13:48:54;9.80;;;6.00;;
53010;SDS011;42803;55.762;38.084;2023-09-19T13:51:33;10.90;;;6.57;;
53010;SDS011;42803;55.762;38.084;2023-09-19T13:54:05;10.40;;;6.70;;
53010;SDS011;42803;55.762;38.084;2023-09-19T13:56:49;10.02;;;6.68;;
53010;SDS011;42803;55.762;38.084;2023-09-19T13:59:22;11.80;;;6.65;;
53010;SDS011;42803;55.762;38.084;2023-09-19T14:02:07;8.80;;;6.38;;
53010;SDS011;42803;55.762;38.084;2023-09-19T14:04:47;9.07;;;6.20;;
53010;SDS011;42803;55.762;38.084;2023-09-19T14:07:22;10.32;;;6.60;;
53010;SDS011;42803;55.762;38.084;2023-09-19T14:10:02;13.73;;;6.90;;
53010;SDS011;42803;55.762;38.084;2023-09-19T14:12:38;14.45;;;6.60;;
53010;SDS011;42803;55.762;38.084;2023-09-19T14:15:10;13.65;;;6.38;;
53010;SDS011;42803;55.762;38.084;2023-09-19T14:17:47;11.70;;;6.68;;
53010;SDS011;42803;55.762;38.084;2023-09-19T14:20:26;13.60;;;7.03;;
53010;SDS011;42803;55.762;38.084;2023-09-19T14:23:01;9.80;;;6.07;;
53010;SDS011;42803;55.762;38.084;2023-09-19T14:25:39;13.27;;;6.50;;
53010;SDS011;42803;55.762;38.084;2023-09-19T14:28:10;9.50;;;5.80;;
53010;SDS011;42803;55.762;38.084;2023-09-19T14:30:49;9.85;;;6.50;;
53010;SDS011;42803;55.762;38.084;2023-09-19T14:33:21;10.82;;;6.07;;
53010;SDS011;42803;55.762;38.084;2023-09-19T14:35:56;9.75;;;6.25;;
53010;SDS011;42803;55.762;38.084;2023-09-19T14:38:28;11.45;;;6.25;;
53010;SDS011;42803;55.762;38.084;2023-09-19T14:41:00;12.32;;;7.07;;
53010;SDS011;42803;55.762;38.084;2023-09-19T14:43:33;10.30;;;6.95;;
53010;SDS011;42803;55.762;38.084;2023-09-19T14:46:03;10.98;;;6.50;;
53010;SDS011;42803;55.762;38.084;2023-09-19T14:48:37;12.02;;;6.97;;
53010;SDS011;42803;55.762;38.084;2023-09-19T14:51:08;12.10;;;6.90;;
53010;SDS011;42803;55.762;38.084;2023-09-19T14:56:12;12.95;;;7.05;;
53010;SDS011;42803;55.762;38.084;2023-09-19T14:58:46;14.07;;;6.85;;
53010;SDS011;42803;55.762;38.084;2023-09-19T15:01:18;16.05;;;7.60;;
53010;SDS011;42803;55.762;38.084;2023-09-19T15:03:53;11.20;;;6.88;;
53010;SDS011;42803;55.762;38.084;2023-09-19T15:06:23;11.38;;;7.75;;
53010;SDS011;42803;55.762;38.084;2023-09-19T15:08:54;11.70;;;7.70;;
53010;SDS011;42803;55.762;38.084;2023-09-19T15:11:25;11.20;;;7.50;;
53010;SDS011;42803;55.762;38.084;2023-09-19T15:13:59;14.15;;;7.85;;
53010;SDS011;42803;55.762;38.084;2023-09-19T15:16:31;11.80;;;6.88;;
53010;SDS011;42803;55.762;38.084;2023-09-19T15:19:03;12.55;;;7.72;;
53010;SDS011;42803;55.762;38.084;2023-09-19T15:21:35;10.85;;;6.80;;
53010;SDS011;42803;55.762;38.084;2023-09-19T15:24:07;13.15;;;6.75;;
53010;SDS011;42803;55.762;38.084;2023-09-19T15:26:37;9.35;;;6.20;;
53010;SDS011;42803;55.762;38.084;2023-09-19T15:29:08;11.88;;;7.22;;
53010;SDS011;42803;55.762;38.084;2023-09-19T15:31:39;12.52;;;7.60;;
53010;SDS011;42803;55.762;38.084;2023-09-19T15:34:11;11.60;;;7.65;;
53010;SDS011;42803;55.762;38.084;2023-09-19T15:36:46;12.50;;;7.47;;
53010;SDS011;42803;55.762;38.084;2023-09-19T15:39:17;17.80;;;7.88;;
53010;SDS011;42803;55.762;38.084;2023-09-19T15:41:50;13.52;;;7.20;;
53010;SDS011;42803;55.762;38.084;2023-09-19T15:44:20;11.55;;;7.22;;
53010;SDS011;42803;55.762;38.084;2023-09-19T15:46:50;15.90;;;7.72;;
53010;SDS011;42803;55.762;38.084;2023-09-19T15:49:24;13.27;;;7.95;;
53010;SDS011;42803;55.762;38.084;2023-09-19T15:51:54;13.30;;;7.72;;